createdAt,value
2018-11-07T00:00:41.958Z,29.90
2018-11-07T00:03:10.479Z,31.37
2018-11-07T00:05:38.976Z,30.40
2018-11-07T00:08:07.854Z,31.77
2018-11-07T00:10:35.642Z,31.47
2018-11-07T00:13:04.529Z,32.73
2018-11-07T00:15:32.707Z,30.97
2018-11-07T00:18:00.876Z,32.83
2018-11-07T00:20:28.556Z,28.07
2018-11-07T00:22:56.820Z,29.00
2018-11-07T00:25:25.907Z,29.90
2018-11-07T00:27:53.890Z,31.77
2018-11-07T00:30:21.830Z,29.33
2018-11-07T00:32:49.936Z,30.33
2018-11-07T00:35:17.784Z,27.93
2018-11-07T00:37:46.016Z,27.97
2018-11-07T00:40:13.732Z,30.30
2018-11-07T00:42:42.311Z,27.57
2018-11-07T00:45:12.124Z,30.60
2018-11-07T00:47:40.355Z,30.17
2018-11-07T00:50:13.102Z,29.03
2018-11-07T00:52:42.635Z,27.67
2018-11-07T00:55:10.983Z,31.93
2018-11-07T00:57:39.067Z,26.83
2018-11-07T01:00:11.107Z,29.50
2018-11-07T01:02:39.381Z,28.17
2018-11-07T01:05:08.683Z,29.37
2018-11-07T01:07:37.101Z,29.00
2018-11-07T01:10:05.668Z,28.70
2018-11-07T01:12:33.812Z,27.50
2018-11-07T01:15:02.399Z,27.53
2018-11-07T01:17:30.370Z,29.53
2018-11-07T01:19:58.370Z,26.67
2018-11-07T01:22:27.126Z,27.90
2018-11-07T01:24:55.124Z,27.80
2018-11-07T01:27:23.510Z,28.33
2018-11-07T01:29:51.773Z,27.33
2018-11-07T01:32:20.297Z,28.17
2018-11-07T01:34:48.465Z,27.53
2018-11-07T01:37:16.182Z,26.93
2018-11-07T01:39:44.047Z,26.60
2018-11-07T01:42:11.967Z,27.70
2018-11-07T01:44:41.211Z,29.77
2018-11-07T01:47:09.009Z,28.80
2018-11-07T01:49:36.784Z,27.17
2018-11-07T01:52:04.678Z,27.77
2018-11-07T01:54:32.791Z,27.80
2018-11-07T01:57:01.815Z,27.57
2018-11-07T01:59:29.672Z,28.10
2018-11-07T02:01:58.289Z,28.33
2018-11-07T02:04:27.282Z,25.57
2018-11-07T02:06:55.355Z,29.03
2018-11-07T02:09:23.902Z,29.57
2018-11-07T02:11:52.262Z,28.77
2018-11-07T02:14:20.225Z,29.43
2018-11-07T02:16:48.680Z,30.07
2018-11-07T02:19:16.689Z,30.90
2018-11-07T02:21:44.927Z,28.70
2018-11-07T02:24:13.217Z,27.90
2018-11-07T02:26:41.180Z,27.87
2018-11-07T02:29:13.685Z,27.57
2018-11-07T02:31:43.201Z,26.97
2018-11-07T02:34:11.725Z,27.33
2018-11-07T02:36:40.365Z,29.00
2018-11-07T02:39:10.487Z,26.87
2018-11-07T02:41:38.443Z,27.97
2018-11-07T02:44:06.203Z,26.87
2018-11-07T02:46:34.947Z,28.17
2018-11-07T02:49:03.004Z,26.00
2018-11-07T02:51:31.313Z,25.10
2018-11-07T02:54:00.788Z,27.50
2018-11-07T02:56:28.454Z,26.77
2018-11-07T02:58:56.784Z,24.33
2018-11-07T03:01:25.701Z,27.27
2018-11-07T03:03:53.417Z,26.47
2018-11-07T03:06:21.639Z,28.07
2018-11-07T03:08:50.579Z,26.93
2018-11-07T03:11:18.404Z,26.37
2018-11-07T03:13:46.140Z,25.30
2018-11-07T03:16:14.429Z,27.00
2018-11-07T03:18:42.848Z,26.10
2018-11-07T03:21:10.793Z,26.57
2018-11-07T03:23:39.436Z,26.17
2018-11-07T03:26:07.560Z,27.80
2018-11-07T03:28:36.393Z,26.00
2018-11-07T03:31:04.167Z,26.33
2018-11-07T03:33:32.394Z,28.30
2018-11-07T03:36:01.085Z,29.50
2018-11-07T03:38:29.589Z,27.83
2018-11-07T03:40:58.846Z,28.70
2018-11-07T03:43:26.551Z,28.90
2018-11-07T03:46:00.661Z,27.57
2018-11-07T03:48:30.268Z,28.33
2018-11-07T03:50:58.153Z,26.27
2018-11-07T03:53:30.863Z,27.50
2018-11-07T03:55:58.725Z,26.57
2018-11-07T03:58:26.461Z,26.40
2018-11-07T04:00:54.280Z,26.00
2018-11-07T04:03:24.048Z,25.60
2018-11-07T04:05:51.870Z,26.27
2018-11-07T04:08:21.652Z,24.73
2018-11-07T04:10:50.131Z,26.57
2018-11-07T04:13:18.943Z,24.63
2018-11-07T04:15:46.816Z,24.10
2018-11-07T04:18:14.558Z,24.40
2018-11-07T04:20:43.271Z,24.03
2018-11-07T04:23:11.489Z,23.03
2018-11-07T04:25:40.713Z,21.80
2018-11-07T04:28:09.462Z,21.13
2018-11-07T04:30:37.128Z,21.47
2018-11-07T04:33:05.523Z,21.90
2018-11-07T04:35:33.992Z,21.40
2018-11-07T04:38:02.176Z,22.60
2018-11-07T04:40:30.018Z,21.43
2018-11-07T04:42:57.885Z,21.07
2018-11-07T04:45:26.167Z,21.33
2018-11-07T04:47:53.936Z,21.63
2018-11-07T04:50:21.650Z,22.13
2018-11-07T04:52:49.503Z,22.80
2018-11-07T04:55:17.220Z,24.03
2018-11-07T04:57:45.040Z,22.90
2018-11-07T05:00:13.196Z,22.53
2018-11-07T05:02:45.161Z,22.83
2018-11-07T05:05:19.116Z,23.37
2018-11-07T05:07:46.861Z,27.57
2018-11-07T05:10:15.146Z,24.57
2018-11-07T05:12:43.326Z,23.50
2018-11-07T05:15:11.436Z,23.87
2018-11-07T05:17:39.733Z,22.20
2018-11-07T05:20:08.680Z,20.57
2018-11-07T05:22:37.690Z,19.53
2018-11-07T05:25:06.365Z,21.17
2018-11-07T05:27:34.403Z,20.17
2018-11-07T05:30:02.176Z,21.53
2018-11-07T05:32:30.427Z,22.30
2018-11-07T05:35:00.200Z,21.57
2018-11-07T05:37:27.984Z,20.03
2018-11-07T05:39:55.721Z,21.33
2018-11-07T05:42:23.473Z,20.67
2018-11-07T05:44:52.604Z,20.77
2018-11-07T05:47:20.292Z,19.70
2018-11-07T05:49:48.740Z,19.47
2018-11-07T05:52:16.969Z,20.37
2018-11-07T05:54:44.658Z,22.17
2018-11-07T05:57:12.399Z,20.07
2018-11-07T05:59:41.608Z,36.70
2018-11-07T06:02:09.313Z,20.53
2018-11-07T06:04:38.095Z,19.27
2018-11-07T06:07:07.322Z,19.80
2018-11-07T06:09:36.562Z,21.23
2018-11-07T06:12:04.515Z,20.50
2018-11-07T06:14:32.886Z,22.00
2018-11-07T06:17:00.643Z,20.10
2018-11-07T06:19:28.511Z,22.03
2018-11-07T06:21:57.105Z,20.60
2018-11-07T06:24:25.245Z,21.07
2018-11-07T06:26:52.716Z,18.83
2018-11-07T06:29:23.119Z,18.97
2018-11-07T06:31:50.766Z,17.90
2018-11-07T06:34:19.291Z,19.37
2018-11-07T06:36:47.073Z,19.40
2018-11-07T06:39:15.935Z,19.87
2018-11-07T06:41:43.911Z,17.70
2018-11-07T06:44:13.311Z,18.80
2018-11-07T06:46:42.185Z,19.00
2018-11-07T06:49:10.090Z,18.73
2018-11-07T06:51:37.949Z,18.30
2018-11-07T06:54:06.271Z,20.00
2018-11-07T06:56:34.705Z,19.57
2018-11-07T06:59:03.018Z,19.80
2018-11-07T07:01:31.101Z,18.63
2018-11-07T07:04:00.479Z,19.90
2018-11-07T07:06:29.002Z,18.20
2018-11-07T07:08:57.568Z,19.13
2018-11-07T07:11:25.588Z,19.00
2018-11-07T07:13:53.211Z,19.63
2018-11-07T07:16:21.292Z,21.40
2018-11-07T07:18:49.500Z,18.70
2018-11-07T07:21:18.740Z,18.40
2018-11-07T07:23:46.654Z,20.80
2018-11-07T07:26:14.521Z,19.87
2018-11-07T07:28:42.762Z,18.87
2018-11-07T07:31:11.331Z,18.40
2018-11-07T07:33:39.403Z,18.20
2018-11-07T07:36:07.321Z,17.47
2018-11-07T07:38:35.141Z,18.77
2018-11-07T07:41:03.352Z,19.93
2018-11-07T07:43:31.032Z,19.73
2018-11-07T07:45:59.031Z,17.87
2018-11-07T07:48:27.040Z,19.73
2018-11-07T07:50:56.189Z,19.40
2018-11-07T07:53:24.681Z,18.17
2018-11-07T07:55:58.618Z,16.90
2018-11-07T07:58:26.262Z,19.10
2018-11-07T08:00:54.422Z,16.23
2018-11-07T08:03:23.405Z,17.93
2018-11-07T08:05:51.996Z,17.60
2018-11-07T08:08:19.740Z,17.40
2018-11-07T08:10:50.973Z,16.87
2018-11-07T08:13:19.281Z,16.77
2018-11-07T08:15:47.289Z,16.00
2018-11-07T08:18:15.026Z,15.20
2018-11-07T08:20:42.888Z,16.37
2018-11-07T08:23:10.673Z,16.20
2018-11-07T08:25:38.678Z,15.20
2018-11-07T08:28:07.523Z,15.63
2018-11-07T08:30:35.410Z,16.27
2018-11-07T08:33:03.235Z,16.33
2018-11-07T08:35:32.610Z,17.23
2018-11-07T08:38:00.356Z,14.80
2018-11-07T08:40:28.597Z,15.37
2018-11-07T08:42:57.251Z,15.87
2018-11-07T08:45:25.514Z,16.70
2018-11-07T08:47:55.019Z,18.57
2018-11-07T08:50:24.733Z,18.10
2018-11-07T08:52:52.703Z,17.40
2018-11-07T08:55:21.975Z,16.90
2018-11-07T08:57:59.440Z,15.40
2018-11-07T09:00:28.676Z,16.90
2018-11-07T09:02:58.356Z,17.40
2018-11-07T09:05:28.267Z,16.57
2018-11-07T09:07:58.423Z,16.80
2018-11-07T09:10:26.569Z,15.00
2018-11-07T09:12:54.516Z,15.60
2018-11-07T09:15:23.701Z,16.20
2018-11-07T09:17:52.428Z,15.27
2018-11-07T09:20:22.025Z,15.90
2018-11-07T09:22:51.427Z,15.27
2018-11-07T09:25:19.652Z,17.27
2018-11-07T09:27:48.083Z,16.60
2018-11-07T09:30:19.656Z,17.83
2018-11-07T09:32:47.598Z,18.20
2018-11-07T09:35:16.229Z,17.57
2018-11-07T09:37:44.687Z,15.60
2018-11-07T09:40:17.590Z,16.80
2018-11-07T09:42:46.425Z,14.60
2018-11-07T09:45:24.653Z,15.90
2018-11-07T09:47:52.697Z,15.60
2018-11-07T09:53:23.878Z,15.23
2018-11-07T09:58:37.341Z,14.80
2018-11-07T10:01:06.867Z,13.93
2018-11-07T10:03:35.306Z,13.70
2018-11-07T10:06:03.240Z,14.00
2018-11-07T10:08:32.175Z,12.97
2018-11-07T10:11:00.141Z,12.53
2018-11-07T10:13:28.076Z,12.10
2018-11-07T10:15:56.669Z,12.27
2018-11-07T10:18:25.356Z,13.30
2018-11-07T10:20:54.021Z,12.87
2018-11-07T10:23:22.675Z,12.53
2018-11-07T10:25:51.105Z,11.40
2018-11-07T10:28:20.181Z,10.27
2018-11-07T10:30:48.967Z,10.47
2018-11-07T10:33:24.026Z,10.30
2018-11-07T10:35:52.477Z,10.00
2018-11-07T10:38:20.713Z,9.33
2018-11-07T10:41:04.579Z,10.23
2018-11-07T10:43:32.511Z,11.23
2018-11-07T10:46:00.913Z,9.93
2018-11-07T10:48:30.992Z,10.30
2018-11-07T10:51:09.283Z,11.70
2018-11-07T10:53:45.090Z,9.67
2018-11-07T10:56:13.137Z,10.73
2018-11-07T10:58:44.084Z,11.23
2018-11-07T11:01:22.811Z,11.87
2018-11-07T11:03:51.884Z,10.93
2018-11-07T11:06:20.382Z,11.00
2018-11-07T11:08:48.711Z,10.10
2018-11-07T11:11:16.663Z,10.40
2018-11-07T11:13:44.355Z,11.00
2018-11-07T11:16:13.266Z,9.93
2018-11-07T11:18:46.084Z,9.77
2018-11-07T11:21:17.466Z,9.80
2018-11-07T11:24:02.439Z,9.50
2018-11-07T11:26:31.894Z,9.90
2018-11-07T11:31:35.745Z,9.63
2018-11-07T11:34:09.825Z,9.87
2018-11-07T11:36:37.966Z,8.50
2018-11-07T11:39:07.975Z,9.73
2018-11-07T11:41:38.874Z,8.27
2018-11-07T11:44:12.443Z,8.77
2018-11-07T11:46:42.845Z,8.07
2018-11-07T11:49:15.642Z,8.50
2018-11-07T11:54:24.367Z,8.80
2018-11-07T11:56:52.641Z,9.43
2018-11-07T11:59:22.492Z,8.00
2018-11-07T12:01:51.744Z,8.93
2018-11-07T12:04:22.394Z,9.30
2018-11-07T12:06:50.596Z,8.70
2018-11-07T12:09:24.689Z,9.00
2018-11-07T12:11:53.410Z,7.73
2018-11-07T12:14:21.645Z,8.40
2018-11-07T12:16:49.861Z,7.47
2018-11-07T12:19:24.481Z,8.57
2018-11-07T12:21:53.434Z,8.30
2018-11-07T12:24:22.045Z,8.57
2018-11-07T12:26:50.385Z,7.27
2018-11-07T12:32:16.885Z,7.80
2018-11-07T12:34:57.548Z,7.60
2018-11-07T12:37:25.454Z,6.47
2018-11-07T12:39:54.042Z,7.20
2018-11-07T12:42:24.193Z,6.97
2018-11-07T12:44:53.716Z,6.70
2018-11-07T12:47:23.751Z,7.27
2018-11-07T12:50:16.343Z,6.40
2018-11-07T12:52:45.652Z,6.97
2018-11-07T12:55:14.320Z,5.43
2018-11-07T12:57:42.644Z,6.93
2018-11-07T13:00:16.238Z,5.70
2018-11-07T13:02:47.416Z,6.40
2018-11-07T13:08:08.363Z,7.03
2018-11-07T13:10:38.215Z,7.07
2018-11-07T13:13:07.430Z,6.03
2018-11-07T13:15:37.129Z,6.73
2018-11-07T13:18:05.821Z,5.90
2018-11-07T13:20:52.987Z,6.33
2018-11-07T13:23:51.684Z,6.20
2018-11-07T13:26:21.345Z,6.20
2018-11-07T13:29:00.129Z,5.80
2018-11-07T13:31:28.923Z,6.53
2018-11-07T13:33:57.225Z,6.27
2018-11-07T13:36:25.565Z,6.50
2018-11-07T13:38:55.275Z,6.37
2018-11-07T13:41:24.659Z,6.13
2018-11-07T13:43:52.879Z,5.57
2018-11-07T13:46:21.493Z,5.80
2018-11-07T13:48:49.804Z,6.20
2018-11-07T13:51:17.779Z,5.70
2018-11-07T13:53:45.650Z,6.27
2018-11-07T13:56:13.884Z,5.40
2018-11-07T13:58:41.655Z,5.50
2018-11-07T14:01:11.221Z,6.00
2018-11-07T14:03:46.303Z,6.63
2018-11-07T14:06:15.647Z,6.67
2018-11-07T14:08:43.888Z,5.57
2018-11-07T14:11:11.744Z,6.13
2018-11-07T14:13:42.022Z,5.90
2018-11-07T14:16:14.039Z,6.30
2018-11-07T14:18:45.480Z,4.77
2018-11-07T14:21:14.080Z,5.50
2018-11-07T14:23:42.532Z,10.17
2018-11-07T14:26:10.927Z,6.20
2018-11-07T14:28:39.046Z,5.10
2018-11-07T14:31:10.812Z,4.97
2018-11-07T14:33:39.248Z,6.30
2018-11-07T14:36:11.069Z,6.57
2018-11-07T14:38:40.833Z,5.97
2018-11-07T14:41:09.192Z,5.00
2018-11-07T14:43:44.855Z,5.80
2018-11-07T14:46:13.336Z,5.27
2018-11-07T14:48:43.695Z,5.00
2018-11-07T14:51:12.381Z,5.30
2018-11-07T14:53:40.832Z,5.70
2018-11-07T14:56:09.966Z,4.63
2018-11-07T14:58:39.513Z,5.10
2018-11-07T15:01:08.940Z,5.07
2018-11-07T15:03:38.000Z,4.60
2018-11-07T15:06:08.529Z,4.97
2018-11-07T15:08:37.335Z,5.13
2018-11-07T15:13:54.229Z,5.10
2018-11-07T15:16:22.986Z,5.50
2018-11-07T15:18:54.127Z,5.20
2018-11-07T15:21:43.357Z,4.53
2018-11-07T15:24:28.507Z,4.53
2018-11-07T15:27:13.917Z,4.90
2018-11-07T15:29:43.716Z,4.57
2018-11-07T15:35:24.963Z,4.43
2018-11-07T15:38:13.159Z,4.30
2018-11-07T15:40:41.272Z,4.63
2018-11-07T15:43:11.719Z,5.07
2018-11-07T15:45:39.731Z,5.23
2018-11-07T15:48:07.712Z,48.73
2018-11-07T15:50:46.537Z,11.63
2018-11-07T15:53:14.895Z,6.13
2018-11-07T15:58:43.898Z,6.10
2018-11-07T16:01:12.547Z,5.63
2018-11-07T16:03:46.469Z,5.30
2018-11-07T16:06:14.394Z,6.13
2018-11-07T16:08:56.393Z,6.50
2018-11-07T16:12:19.684Z,6.33
2018-11-07T16:14:57.770Z,6.87
2018-11-07T16:17:25.874Z,7.40
2018-11-07T16:20:01.838Z,6.83
2018-11-07T16:22:29.950Z,8.80
2018-11-07T16:24:57.690Z,9.70
2018-11-07T16:27:25.599Z,8.37
2018-11-07T16:29:53.333Z,9.80
2018-11-07T16:32:21.115Z,9.80
2018-11-07T16:34:49.046Z,9.60
2018-11-07T16:37:16.903Z,10.43
2018-11-07T16:39:44.646Z,12.47
2018-11-07T16:42:13.571Z,11.37
2018-11-07T16:44:41.432Z,10.27
2018-11-07T16:47:42.358Z,10.10
2018-11-07T16:50:14.822Z,10.03
2018-11-07T16:52:43.322Z,10.20
2018-11-07T16:55:13.862Z,8.30
2018-11-07T16:57:45.482Z,8.23
2018-11-07T17:00:16.395Z,9.23
2018-11-07T17:03:25.050Z,8.77
2018-11-07T17:06:01.568Z,10.03
2018-11-07T17:08:30.848Z,8.60
2018-11-07T17:11:01.032Z,10.10
2018-11-07T17:16:05.117Z,9.50
2018-11-07T17:18:34.069Z,10.23
2018-11-07T17:21:14.993Z,12.00
2018-11-07T17:23:46.876Z,10.30
2018-11-07T17:29:23.101Z,10.10
2018-11-07T17:34:34.170Z,9.47
2018-11-07T17:37:49.851Z,10.17
2018-11-07T17:44:25.938Z,9.70
2018-11-07T17:46:56.640Z,9.67
2018-11-07T17:49:40.299Z,10.93
2018-11-07T17:52:09.151Z,9.17
2018-11-07T17:57:32.983Z,10.07
2018-11-07T18:00:12.751Z,9.00
2018-11-07T18:02:42.476Z,8.20
2018-11-07T18:10:45.149Z,10.43
2018-11-07T18:13:17.123Z,9.73
2018-11-07T18:18:24.987Z,11.23
2018-11-07T18:20:53.230Z,10.80
2018-11-07T18:26:19.029Z,9.47
2018-11-07T18:28:47.298Z,9.40
2018-11-07T18:31:16.935Z,8.90
2018-11-07T18:36:49.173Z,9.93
2018-11-07T18:39:17.885Z,8.60
2018-11-07T18:41:46.116Z,8.60
2018-11-07T18:44:14.131Z,8.00
2018-11-07T18:51:48.799Z,9.87
2018-11-07T18:54:16.544Z,9.30
2018-11-07T18:56:44.318Z,10.70
2018-11-07T18:59:12.387Z,9.10
2018-11-07T19:01:42.555Z,9.00
2018-11-07T19:04:11.923Z,9.10
2018-11-07T19:06:45.615Z,9.73
2018-11-07T19:09:22.847Z,9.40
2018-11-07T19:11:56.572Z,8.50
2018-11-07T19:14:47.779Z,9.87
2018-11-07T19:17:16.514Z,11.40
2018-11-07T19:19:45.896Z,13.00
2018-11-07T19:22:15.239Z,18.90
2018-11-07T19:24:56.669Z,13.30
2018-11-07T19:27:25.013Z,18.07
2018-11-07T19:29:54.013Z,11.40
2018-11-07T19:32:22.295Z,9.70
2018-11-07T19:37:52.108Z,8.90
2018-11-07T19:40:25.994Z,7.80
2018-11-07T19:42:54.735Z,8.03
2018-11-07T19:45:23.474Z,8.40
2018-11-07T19:47:51.813Z,8.67
2018-11-07T19:50:21.338Z,7.60
2018-11-07T19:52:50.306Z,8.20
2018-11-07T19:55:25.304Z,10.60
2018-11-07T19:57:55.758Z,9.80
2018-11-07T20:00:26.262Z,8.23
2018-11-07T20:02:54.292Z,9.07
2018-11-07T20:11:05.643Z,10.60
2018-11-07T20:13:35.903Z,10.17
2018-11-07T20:16:26.152Z,11.70
2018-11-07T20:18:54.448Z,10.07
2018-11-07T20:21:23.509Z,9.77
2018-11-07T20:26:51.960Z,9.20
2018-11-07T20:29:25.701Z,8.50
2018-11-07T20:35:03.034Z,9.20
2018-11-07T20:37:35.945Z,8.43
2018-11-07T20:40:20.015Z,8.93
2018-11-07T20:42:48.266Z,9.43
2018-11-07T20:45:37.741Z,8.80
2018-11-07T20:48:06.135Z,8.63
2018-11-07T20:50:36.474Z,7.10
2018-11-07T20:53:05.539Z,7.30
2018-11-07T20:55:34.303Z,9.20
2018-11-07T20:58:03.389Z,8.70
2018-11-07T21:00:33.200Z,8.30
2018-11-07T21:03:02.028Z,7.73
2018-11-07T21:05:30.387Z,6.83
2018-11-07T21:07:58.697Z,7.07
2018-11-07T21:10:27.066Z,6.93
2018-11-07T21:13:16.825Z,7.00
2018-11-07T21:15:57.241Z,6.70
2018-11-07T21:18:24.967Z,6.83
2018-11-07T21:20:52.976Z,7.17
2018-11-07T21:23:20.743Z,6.57
2018-11-07T21:25:50.301Z,6.60
2018-11-07T21:28:19.464Z,6.93
2018-11-07T21:30:47.936Z,6.90
2018-11-07T21:33:17.420Z,6.63
2018-11-07T21:35:46.586Z,6.70
2018-11-07T21:38:18.169Z,5.60
2018-11-07T21:40:48.799Z,5.53
2018-11-07T21:43:17.925Z,5.83
2018-11-07T21:45:50.664Z,5.23
2018-11-07T21:48:18.977Z,5.60
2018-11-07T21:51:22.077Z,5.50
2018-11-07T21:53:50.608Z,5.73
2018-11-07T21:59:21.107Z,6.13
2018-11-07T22:02:20.164Z,5.43
2018-11-07T22:04:48.456Z,6.10
2018-11-07T22:07:16.750Z,5.77
2018-11-07T22:09:44.614Z,5.60
2018-11-07T22:12:25.697Z,6.00
2018-11-07T22:14:54.670Z,5.87
2018-11-07T22:20:38.879Z,6.57
2018-11-07T22:23:07.149Z,6.47
2018-11-07T22:25:51.896Z,5.70
2018-11-07T22:28:40.752Z,5.80
2018-11-07T22:31:09.009Z,5.80
2018-11-07T22:33:48.964Z,6.27
2018-11-07T22:36:17.259Z,5.90
2018-11-07T22:43:46.064Z,5.80
2018-11-07T22:46:14.203Z,5.60
2018-11-07T22:48:42.453Z,6.20
2018-11-07T22:51:10.484Z,6.30
2018-11-07T22:53:39.956Z,5.67
2018-11-07T22:56:12.776Z,6.50
2018-11-07T22:58:48.897Z,5.90
2018-11-07T23:01:21.445Z,7.43
2018-11-07T23:04:22.035Z,7.10
2018-11-07T23:06:50.523Z,7.50
2018-11-07T23:09:18.828Z,7.00
2018-11-07T23:12:09.783Z,6.53
2018-11-07T23:14:38.493Z,6.97
2018-11-07T23:19:59.058Z,6.77
2018-11-07T23:22:28.011Z,6.63
2018-11-07T23:28:00.496Z,7.10
2018-11-07T23:30:48.138Z,6.70
2018-11-07T23:36:11.342Z,6.23
2018-11-07T23:38:40.221Z,7.10
2018-11-07T23:41:21.281Z,6.77
2018-11-07T23:43:50.300Z,5.80
2018-11-07T23:49:21.115Z,8.00
2018-11-07T23:51:50.293Z,7.47
2018-11-07T23:57:18.239Z,8.50
2018-11-07T23:59:47.287Z,6.43
